Cushman, Arkansas
Current Conditions -  °F | °C
As of 7:35 AM on Friday 28 Nov 2014 (Local Time) from KBVX Reporting Station
Clear Clear  
Wind Chill: 28°   Ceiling: Unl
Heat Index: 34°   Visibility: 8mi
Dew Point: 28°   Wind: 7mph
Humidity: 81%   Direction: 130°SE
Pressure: 30.34"   Gusts: NA
Location:  35.87°N, 91.75°W
Report Text: KBVX 281335Z AUTO 13006KT 8SM CLR 01/M02 A3034 RMK AO1
Loading
Personal Weather Stations






























Interactive Weather Map New forecast layout! Learn more

10-Day Weather Forecast

Advertisements
Track Severe Weather on mobile